sensor_id;sensor_type;location;lat;lon;timestamp;pressure;altitude;pressure_sealevel;temperature;humidity
4590;BME280;2307;48.448;9.216;2023-02-21T00:02:35;95895.50;;;9.38;45.91
4590;BME280;2307;48.448;9.216;2023-02-21T00:05:19;95894.50;;;9.33;45.38
4590;BME280;2307;48.448;9.216;2023-02-21T00:08:03;95894.75;;;9.31;46.64
4590;BME280;2307;48.448;9.216;2023-02-21T00:10:47;95897.28;;;9.44;45.21
4590;BME280;2307;48.448;9.216;2023-02-21T00:13:35;95889.63;;;9.36;45.46
4590;BME280;2307;48.448;9.216;2023-02-21T00:16:19;95891.81;;;9.39;46.03
4590;BME280;2307;48.448;9.216;2023-02-21T00:19:03;95884.78;;;9.33;45.81
4590;BME280;2307;48.448;9.216;2023-02-21T00:21:47;95888.03;;;9.35;45.87
4590;BME280;2307;48.448;9.216;2023-02-21T00:24:31;95879.88;;;9.37;45.71
4590;BME280;2307;48.448;9.216;2023-02-21T00:27:15;95871.34;;;9.41;46.24
4590;BME280;2307;48.448;9.216;2023-02-21T00:30:00;95882.00;;;9.28;46.56
4590;BME280;2307;48.448;9.216;2023-02-21T00:32:44;95872.06;;;9.24;46.57
4590;BME280;2307;48.448;9.216;2023-02-21T00:35:28;95878.75;;;9.26;46.01
4590;BME280;2307;48.448;9.216;2023-02-21T00:38:12;95872.47;;;9.27;46.12
4590;BME280;2307;48.448;9.216;2023-02-21T00:40:56;95866.56;;;9.32;45.82
4590;BME280;2307;48.448;9.216;2023-02-21T00:43:40;95874.66;;;9.30;45.96
4590;BME280;2307;48.448;9.216;2023-02-21T00:46:25;95873.66;;;9.31;46.34
4590;BME280;2307;48.448;9.216;2023-02-21T00:49:09;95866.59;;;9.25;46.67
4590;BME280;2307;48.448;9.216;2023-02-21T00:51:53;95871.69;;;9.20;47.74
4590;BME280;2307;48.448;9.216;2023-02-21T00:54:37;95870.41;;;9.04;48.41
4590;BME280;2307;48.448;9.216;2023-02-21T00:57:21;95862.66;;;9.10;47.28
4590;BME280;2307;48.448;9.216;2023-02-21T01:00:07;95864.75;;;9.01;47.54
4590;BME280;2307;48.448;9.216;2023-02-21T01:02:52;95862.75;;;8.96;48.11
4590;BME280;2307;48.448;9.216;2023-02-21T01:05:36;95854.63;;;8.98;47.21
4590;BME280;2307;48.448;9.216;2023-02-21T01:08:20;95858.03;;;9.05;47.47
4590;BME280;2307;48.448;9.216;2023-02-21T01:11:04;95848.25;;;9.12;47.17
4590;BME280;2307;48.448;9.216;2023-02-21T01:13:48;95846.78;;;9.23;46.88
4590;BME280;2307;48.448;9.216;2023-02-21T01:16:32;95846.63;;;9.11;47.76
4590;BME280;2307;48.448;9.216;2023-02-21T01:19:17;95846.63;;;9.11;47.52
4590;BME280;2307;48.448;9.216;2023-02-21T01:22:01;95844.28;;;9.03;47.80
4590;BME280;2307;48.448;9.216;2023-02-21T01:24:47;95850.34;;;9.03;47.61
4590;BME280;2307;48.448;9.216;2023-02-21T01:27:31;95850.94;;;9.05;48.01
4590;BME280;2307;48.448;9.216;2023-02-21T01:30:15;95852.75;;;9.05;48.16
4590;BME280;2307;48.448;9.216;2023-02-21T01:32:59;95850.13;;;9.05;48.42
4590;BME280;2307;48.448;9.216;2023-02-21T01:35:44;95845.28;;;9.02;47.96
4590;BME280;2307;48.448;9.216;2023-02-21T01:38:28;95844.28;;;9.03;48.40
4590;BME280;2307;48.448;9.216;2023-02-21T01:41:15;95851.38;;;9.02;49.13
4590;BME280;2307;48.448;9.216;2023-02-21T01:44:00;95843.03;;;9.05;48.89
4590;BME280;2307;48.448;9.216;2023-02-21T01:46:44;95847.19;;;8.88;50.60
4590;BME280;2307;48.448;9.216;2023-02-21T01:49:28;95848.69;;;8.78;50.24
4590;BME280;2307;48.448;9.216;2023-02-21T01:52:13;95839.59;;;8.74;52.41
4590;BME280;2307;48.448;9.216;2023-02-21T01:54:57;95835.41;;;8.60;52.80
4590;BME280;2307;48.448;9.216;2023-02-21T01:57:42;95833.03;;;8.51;52.54
4590;BME280;2307;48.448;9.216;2023-02-21T02:00:27;95831.03;;;8.47;54.50
4590;BME280;2307;48.448;9.216;2023-02-21T02:03:12;95840.44;;;8.23;56.02
4590;BME280;2307;48.448;9.216;2023-02-21T02:05:57;95832.44;;;8.05;58.88
4590;BME280;2307;48.448;9.216;2023-02-21T02:08:43;95831.00;;;8.02;60.81
4590;BME280;2307;48.448;9.216;2023-02-21T02:11:35;95825.38;;;7.99;57.42
4590;BME280;2307;48.448;9.216;2023-02-21T02:14:26;95829.19;;;7.96;57.43
4590;BME280;2307;48.448;9.216;2023-02-21T02:17:00;95828.38;;;7.96;59.37
4590;BME280;2307;48.448;9.216;2023-02-21T02:19:53;95832.91;;;7.82;60.94
4590;BME280;2307;48.448;9.216;2023-02-21T02:22:29;95833.72;;;7.76;61.64
4590;BME280;2307;48.448;9.216;2023-02-21T02:25:06;95836.16;;;7.71;62.69
4590;BME280;2307;48.448;9.216;2023-02-21T02:27:40;95828.47;;;7.70;61.67
4590;BME280;2307;48.448;9.216;2023-02-21T02:35:37;95824.91;;;7.44;64.41
4590;BME280;2307;48.448;9.216;2023-02-21T02:38:07;95822.69;;;7.41;64.78
4590;BME280;2307;48.448;9.216;2023-02-21T02:40:35;95821.22;;;7.45;64.76
4590;BME280;2307;48.448;9.216;2023-02-21T02:43:09;95816.59;;;7.54;62.79
4590;BME280;2307;48.448;9.216;2023-02-21T02:45:39;95817.38;;;7.61;61.28
4590;BME280;2307;48.448;9.216;2023-02-21T02:48:09;95816.75;;;7.66;59.52
4590;BME280;2307;48.448;9.216;2023-02-21T02:50:40;95813.31;;;7.65;60.21
4590;BME280;2307;48.448;9.216;2023-02-21T02:53:08;95814.94;;;7.66;59.39
4590;BME280;2307;48.448;9.216;2023-02-21T02:55:36;95805.81;;;7.69;58.92
4590;BME280;2307;48.448;9.216;2023-02-21T02:58:04;95799.16;;;7.73;57.77
4590;BME280;2307;48.448;9.216;2023-02-21T03:00:31;95799.75;;;7.75;57.80
4590;BME280;2307;48.448;9.216;2023-02-21T03:03:03;95799.13;;;7.86;56.31
4590;BME280;2307;48.448;9.216;2023-02-21T03:05:38;95800.06;;;7.98;55.95
4590;BME280;2307;48.448;9.216;2023-02-21T03:08:10;95806.53;;;8.02;56.06
4590;BME280;2307;48.448;9.216;2023-02-21T03:10:41;95799.41;;;8.09;55.98
4590;BME280;2307;48.448;9.216;2023-02-21T03:13:11;95794.16;;;8.09;56.69
4590;BME280;2307;48.448;9.216;2023-02-21T03:15:39;95799.25;;;8.04;56.73
4590;BME280;2307;48.448;9.216;2023-02-21T03:18:11;95802.81;;;8.16;55.62
4590;BME280;2307;48.448;9.216;2023-02-21T03:20:39;95793.91;;;8.24;55.05
4590;BME280;2307;48.448;9.216;2023-02-21T03:23:06;95793.09;;;8.23;55.91
4590;BME280;2307;48.448;9.216;2023-02-21T03:25:35;95793.09;;;8.23;56.63
4590;BME280;2307;48.448;9.216;2023-02-21T03:28:03;95789.38;;;8.37;54.76
4590;BME280;2307;48.448;9.216;2023-02-21T03:30:30;95794.59;;;8.44;55.22
4590;BME280;2307;48.448;9.216;2023-02-21T03:32:57;95799.31;;;8.35;57.29
4590;BME280;2307;48.448;9.216;2023-02-21T03:35:23;95797.50;;;8.36;56.57
4590;BME280;2307;48.448;9.216;2023-02-21T03:37:53;95787.41;;;8.26;56.97
4590;BME280;2307;48.448;9.216;2023-02-21T03:40:21;95784.19;;;8.24;58.17
4590;BME280;2307;48.448;9.216;2023-02-21T03:42:49;95782.34;;;8.25;58.26
4590;BME280;2307;48.448;9.216;2023-02-21T03:45:15;95777.28;;;8.23;57.91
4590;BME280;2307;48.448;9.216;2023-02-21T03:47:41;95778.91;;;8.24;57.97
4590;BME280;2307;48.448;9.216;2023-02-21T03:50:08;95783.38;;;8.30;59.88
4590;BME280;2307;48.448;9.216;2023-02-21T03:52:34;95785.78;;;8.25;60.47
4590;BME280;2307;48.448;9.216;2023-02-21T03:55:01;95775.13;;;8.14;60.81
4590;BME280;2307;48.448;9.216;2023-02-21T03:57:27;95774.72;;;8.10;60.35
4590;BME280;2307;48.448;9.216;2023-02-21T03:59:55;95776.75;;;8.15;62.82
4590;BME280;2307;48.448;9.216;2023-02-21T04:02:21;95780.16;;;8.15;62.45
4590;BME280;2307;48.448;9.216;2023-02-21T04:04:47;95782.25;;;8.00;65.43
4590;BME280;2307;48.448;9.216;2023-02-21T04:07:14;95777.00;;;8.00;64.28
4590;BME280;2307;48.448;9.216;2023-02-21T04:09:41;95786.31;;;7.96;64.38
4590;BME280;2307;48.448;9.216;2023-02-21T04:12:07;95776.22;;;7.93;64.15
4590;BME280;2307;48.448;9.216;2023-02-21T04:14:33;95781.03;;;7.96;64.94
4590;BME280;2307;48.448;9.216;2023-02-21T04:17:01;95777.41;;;7.97;64.00
4590;BME280;2307;48.448;9.216;2023-02-21T04:19:27;95776.19;;;7.99;63.16
4590;BME280;2307;48.448;9.216;2023-02-21T04:21:54;95780.81;;;8.04;64.66
4590;BME280;2307;48.448;9.216;2023-02-21T04:24:20;95769.63;;;8.15;64.61
4590;BME280;2307;48.448;9.216;2023-02-21T04:26:47;95780.88;;;7.91;66.12
4590;BME280;2307;48.448;9.216;2023-02-21T04:29:13;95767.97;;;7.83;64.59
4590;BME280;2307;48.448;9.216;2023-02-21T04:31:40;95771.38;;;7.90;64.06
4590;BME280;2307;48.448;9.216;2023-02-21T04:34:08;95770.34;;;7.97;62.86
4590;BME280;2307;48.448;9.216;2023-02-21T04:36:34;95766.47;;;8.00;62.47
4590;BME280;2307;48.448;9.216;2023-02-21T04:39:02;95762.75;;;8.21;60.83
4590;BME280;2307;48.448;9.216;2023-02-21T04:41:28;95768.19;;;8.19;61.23
4590;BME280;2307;48.448;9.216;2023-02-21T04:43:55;95767.19;;;8.20;61.52
4590;BME280;2307;48.448;9.216;2023-02-21T04:46:21;95766.34;;;8.26;63.73
4590;BME280;2307;48.448;9.216;2023-02-21T04:48:48;95771.69;;;8.13;68.86
4590;BME280;2307;48.448;9.216;2023-02-21T04:51:17;95776.59;;;7.96;67.77
4590;BME280;2307;48.448;9.216;2023-02-21T04:53:45;95766.34;;;7.82;69.83
4590;BME280;2307;48.448;9.216;2023-02-21T04:56:12;95766.34;;;7.82;68.29
4590;BME280;2307;48.448;9.216;2023-02-21T04:58:39;95755.59;;;7.83;67.01
4590;BME280;2307;48.448;9.216;2023-02-21T05:01:06;95760.88;;;7.83;66.46
4590;BME280;2307;48.448;9.216;2023-02-21T05:03:32;95768.97;;;7.88;68.60
4590;BME280;2307;48.448;9.216;2023-02-21T05:05:59;95758.03;;;7.85;68.64
4590;BME280;2307;48.448;9.216;2023-02-21T05:08:26;95762.72;;;7.83;72.00
4590;BME280;2307;48.448;9.216;2023-02-21T05:10:53;95759.72;;;7.73;74.53
4590;BME280;2307;48.448;9.216;2023-02-21T05:13:19;95755.50;;;7.59;75.96
4590;BME280;2307;48.448;9.216;2023-02-21T05:15:46;95754.94;;;7.43;78.07
4590;BME280;2307;48.448;9.216;2023-02-21T05:18:12;95761.44;;;7.41;80.01
4590;BME280;2307;48.448;9.216;2023-02-21T05:20:39;95757.41;;;7.38;82.31
4590;BME280;2307;48.448;9.216;2023-02-21T05:23:05;95755.19;;;7.35;83.92
4590;BME280;2307;48.448;9.216;2023-02-21T05:25:33;95760.63;;;7.40;84.33
4590;BME280;2307;48.448;9.216;2023-02-21T05:27:59;95762.66;;;7.32;75.07
4590;BME280;2307;48.448;9.216;2023-02-21T05:30:25;95763.06;;;7.29;79.51
4590;BME280;2307;48.448;9.216;2023-02-21T05:32:52;95761.06;;;7.18;80.74
4590;BME280;2307;48.448;9.216;2023-02-21T05:35:18;95766.94;;;7.13;82.50
4590;BME280;2307;48.448;9.216;2023-02-21T05:37:45;95763.91;;;7.10;84.23
4590;BME280;2307;48.448;9.216;2023-02-21T05:40:11;95771.38;;;7.19;84.30
4590;BME280;2307;48.448;9.216;2023-02-21T05:42:41;95771.38;;;7.06;85.11
4590;BME280;2307;48.448;9.216;2023-02-21T05:45:07;95771.97;;;6.95;81.79
4590;BME280;2307;48.448;9.216;2023-02-21T05:47:34;95767.53;;;6.89;83.44
4590;BME280;2307;48.448;9.216;2023-02-21T05:50:00;95773.19;;;6.86;84.16
4590;BME280;2307;48.448;9.216;2023-02-21T05:52:27;95766.53;;;6.90;89.46
4590;BME280;2307;48.448;9.216;2023-02-21T05:54:53;95781.28;;;6.71;87.96
4590;BME280;2307;48.448;9.216;2023-02-21T05:57:20;95767.94;;;6.73;84.38
4590;BME280;2307;48.448;9.216;2023-02-21T05:59:47;95777.25;;;6.69;85.53
4590;BME280;2307;48.448;9.216;2023-02-21T06:02:14;95776.63;;;6.67;84.79
4590;BME280;2307;48.448;9.216;2023-02-21T06:04:40;95773.81;;;6.75;91.16
4590;BME280;2307;48.448;9.216;2023-02-21T06:07:06;95774.00;;;6.80;91.74
4590;BME280;2307;48.448;9.216;2023-02-21T06:09:33;95769.75;;;6.92;92.91
4590;BME280;2307;48.448;9.216;2023-02-21T06:11:59;95764.91;;;6.89;90.74
4590;BME280;2307;48.448;9.216;2023-02-21T06:14:25;95768.34;;;6.89;92.61
4590;BME280;2307;48.448;9.216;2023-02-21T06:16:53;95763.28;;;7.01;98.22
4590;BME280;2307;48.448;9.216;2023-02-21T06:19:20;95765.31;;;6.92;94.75
4590;BME280;2307;48.448;9.216;2023-02-21T06:21:46;95758.66;;;6.83;95.18
4590;BME280;2307;48.448;9.216;2023-02-21T06:24:12;95765.94;;;6.88;94.98
4590;BME280;2307;48.448;9.216;2023-02-21T06:26:39;95762.69;;;6.79;96.84
4590;BME280;2307;48.448;9.216;2023-02-21T06:29:06;95765.53;;;6.84;95.00
4590;BME280;2307;48.448;9.216;2023-02-21T06:31:33;95762.69;;;6.66;94.03
4590;BME280;2307;48.448;9.216;2023-02-21T06:34:01;95765.31;;;6.73;100.00
4590;BME280;2307;48.448;9.216;2023-02-21T06:36:28;95766.53;;;6.70;98.36
4590;BME280;2307;48.448;9.216;2023-02-21T06:38:55;95766.34;;;6.72;100.00
4590;BME280;2307;48.448;9.216;2023-02-21T06:41:22;95760.69;;;6.68;100.00
4590;BME280;2307;48.448;9.216;2023-02-21T06:43:49;95767.13;;;6.72;100.00
4590;BME280;2307;48.448;9.216;2023-02-21T06:46:16;95768.97;;;6.65;97.17
4590;BME280;2307;48.448;9.216;2023-02-21T06:48:42;95766.75;;;6.62;99.85
4590;BME280;2307;48.448;9.216;2023-02-21T06:51:10;95773.59;;;6.70;100.00
4590;BME280;2307;48.448;9.216;2023-02-21T06:53:38;95773.59;;;6.57;100.00
4590;BME280;2307;48.448;9.216;2023-02-21T06:56:05;95775.22;;;6.64;100.00
4590;BME280;2307;48.448;9.216;2023-02-21T06:58:31;95779.06;;;6.62;100.00
4590;BME280;2307;48.448;9.216;2023-02-21T07:00:58;95781.44;;;6.50;100.00
4590;BME280;2307;48.448;9.216;2023-02-21T07:03:24;95775.59;;;6.55;100.00
4590;BME280;2307;48.448;9.216;2023-02-21T07:05:50;95774.78;;;6.54;100.00
4590;BME280;2307;48.448;9.216;2023-02-21T07:08:18;95772.38;;;6.53;100.00
4590;BME280;2307;48.448;9.216;2023-02-21T07:10:45;95772.56;;;6.51;100.00
4590;BME280;2307;48.448;9.216;2023-02-21T07:13:12;95780.88;;;6.68;100.00
4590;BME280;2307;48.448;9.216;2023-02-21T07:15:38;95772.59;;;6.64;100.00
4590;BME280;2307;48.448;9.216;2023-02-21T07:18:04;95771.97;;;6.56;100.00
4590;BME280;2307;48.448;9.216;2023-02-21T07:20:31;95768.56;;;6.62;100.00
4590;BME280;2307;48.448;9.216;2023-02-21T07:22:59;95769.56;;;6.67;100.00
4590;BME280;2307;48.448;9.216;2023-02-21T07:25:27;95768.75;;;6.80;100.00
4590;BME280;2307;48.448;9.216;2023-02-21T07:27:53;95767.34;;;6.97;100.00
4590;BME280;2307;48.448;9.216;2023-02-21T07:30:20;95766.72;;;6.88;100.00
4590;BME280;2307;48.448;9.216;2023-02-21T07:32:46;95765.31;;;6.86;100.00
4590;BME280;2307;48.448;9.216;2023-02-21T07:35:13;95762.50;;;6.87;100.00
4590;BME280;2307;48.448;9.216;2023-02-21T07:37:39;95763.09;;;6.83;100.00
4590;BME280;2307;48.448;9.216;2023-02-21T07:40:06;95757.84;;;6.83;100.00
4590;BME280;2307;48.448;9.216;2023-02-21T07:42:33;95755.44;;;6.88;100.00
4590;BME280;2307;48.448;9.216;2023-02-21T07:45:00;95761.47;;;6.95;100.00
4590;BME280;2307;48.448;9.216;2023-02-21T07:47:27;95758.25;;;6.93;100.00
4590;BME280;2307;48.448;9.216;2023-02-21T07:49:53;95757.84;;;7.09;100.00
4590;BME280;2307;48.448;9.216;2023-02-21T07:52:20;95761.06;;;6.98;100.00
4590;BME280;2307;48.448;9.216;2023-02-21T07:54:46;95759.66;;;6.82;100.00
4590;BME280;2307;48.448;9.216;2023-02-21T07:57:14;95756.63;;;6.79;100.00
4590;BME280;2307;48.448;9.216;2023-02-21T07:59:42;95760.69;;;6.75;100.00
4590;BME280;2307;48.448;9.216;2023-02-21T08:02:08;95755.44;;;6.75;100.00
4590;BME280;2307;48.448;9.216;2023-02-21T08:04:34;95763.31;;;6.75;100.00
4590;BME280;2307;48.448;9.216;2023-02-21T08:07:01;95757.44;;;6.86;100.00
4590;BME280;2307;48.448;9.216;2023-02-21T08:09:28;95759.88;;;6.94;100.00
4590;BME280;2307;48.448;9.216;2023-02-21T08:11:54;95760.06;;;7.06;100.00
4590;BME280;2307;48.448;9.216;2023-02-21T08:14:21;95761.88;;;7.12;99.78
4590;BME280;2307;48.448;9.216;2023-02-21T08:16:48;95758.66;;;7.16;100.00
4590;BME280;2307;48.448;9.216;2023-02-21T08:19:15;95753.56;;;7.21;100.00
4590;BME280;2307;48.448;9.216;2023-02-21T08:21:43;95757.00;;;7.35;100.00
4590;BME280;2307;48.448;9.216;2023-02-21T08:24:09;95767.09;;;7.31;100.00
4590;BME280;2307;48.448;9.216;2023-02-21T08:26:36;95766.03;;;7.45;100.00
4590;BME280;2307;48.448;9.216;2023-02-21T08:29:04;95765.88;;;7.40;100.00
4590;BME280;2307;48.448;9.216;2023-02-21T08:31:33;95770.72;;;7.30;100.00
4590;BME280;2307;48.448;9.216;2023-02-21T08:34:01;95773.56;;;7.35;100.00
4590;BME280;2307;48.448;9.216;2023-02-21T08:36:29;95765.88;;;7.40;100.00
4590;BME280;2307;48.448;9.216;2023-02-21T08:38:56;95767.09;;;7.44;100.00
4590;BME280;2307;48.448;9.216;2023-02-21T08:41:22;95770.72;;;7.43;100.00
4590;BME280;2307;48.448;9.216;2023-02-21T08:43:49;95773.34;;;7.43;100.00
4590;BME280;2307;48.448;9.216;2023-02-21T08:46:16;95779.81;;;7.47;100.00
4590;BME280;2307;48.448;9.216;2023-02-21T08:48:42;95771.53;;;7.44;100.00
4590;BME280;2307;48.448;9.216;2023-02-21T08:51:10;95774.34;;;7.49;100.00
4590;BME280;2307;48.448;9.216;2023-02-21T08:53:37;95773.75;;;7.40;100.00
4590;BME280;2307;48.448;9.216;2023-02-21T08:56:03;95780.56;;;7.61;100.00
4590;BME280;2307;48.448;9.216;2023-02-21T08:58:30;95782.41;;;7.61;100.00
4590;BME280;2307;48.448;9.216;2023-02-21T09:00:56;95772.72;;;7.55;100.00
4590;BME280;2307;48.448;9.216;2023-02-21T09:03:22;95775.13;;;7.63;100.00
4590;BME280;2307;48.448;9.216;2023-02-21T09:05:49;95779.53;;;7.75;100.00
4590;BME280;2307;48.448;9.216;2023-02-21T09:08:17;95777.47;;;7.84;100.00
4590;BME280;2307;48.448;9.216;2023-02-21T09:10:44;95770.13;;;7.99;100.00
4590;BME280;2307;48.448;9.216;2023-02-21T09:13:13;95785.91;;;7.99;100.00
4590;BME280;2307;48.448;9.216;2023-02-21T09:15:39;95778.19;;;8.04;100.00
4590;BME280;2307;48.448;9.216;2023-02-21T09:18:06;95769.28;;;8.12;100.00
4590;BME280;2307;48.448;9.216;2023-02-21T09:20:32;95775.66;;;8.22;100.00
4590;BME280;2307;48.448;9.216;2023-02-21T09:22:58;95775.84;;;8.34;100.00
4590;BME280;2307;48.448;9.216;2023-02-21T09:25:26;95778.44;;;8.40;100.00
4590;BME280;2307;48.448;9.216;2023-02-21T09:27:52;95766.03;;;8.47;100.00
4590;BME280;2307;48.448;9.216;2023-02-21T09:30:20;95769.47;;;8.48;97.89
4590;BME280;2307;48.448;9.216;2023-02-21T09:32:48;95773.69;;;8.56;96.91
4590;BME280;2307;48.448;9.216;2023-02-21T09:35:15;95766.91;;;8.66;95.39
4590;BME280;2307;48.448;9.216;2023-02-21T09:37:42;95770.13;;;8.75;94.18
4590;BME280;2307;48.448;9.216;2023-02-21T09:40:11;95768.84;;;8.84;92.87
4590;BME280;2307;48.448;9.216;2023-02-21T09:42:42;95763.53;;;8.90;91.48
4590;BME280;2307;48.448;9.216;2023-02-21T09:45:12;95768.31;;;9.00;89.80
4590;BME280;2307;48.448;9.216;2023-02-21T09:47:39;95762.97;;;9.06;88.20
4590;BME280;2307;48.448;9.216;2023-02-21T09:50:10;95759.47;;;9.13;87.69
4590;BME280;2307;48.448;9.216;2023-02-21T09:52:38;95760.00;;;9.21;84.74
4590;BME280;2307;48.448;9.216;2023-02-21T09:55:06;95752.03;;;9.28;82.18
4590;BME280;2307;48.448;9.216;2023-02-21T09:57:34;95760.69;;;9.35;84.86
4590;BME280;2307;48.448;9.216;2023-02-21T10:00:05;95760.00;;;9.39;86.22
4590;BME280;2307;48.448;9.216;2023-02-21T10:02:37;95748.97;;;9.49;86.69
4590;BME280;2307;48.448;9.216;2023-02-21T10:05:07;95755.34;;;9.59;85.17
4590;BME280;2307;48.448;9.216;2023-02-21T10:07:42;95762.38;;;9.66;84.63
4590;BME280;2307;48.448;9.216;2023-02-21T10:10:11;95750.94;;;9.72;85.65
4590;BME280;2307;48.448;9.216;2023-02-21T10:12:39;95752.88;;;9.83;84.94
4590;BME280;2307;48.448;9.216;2023-02-21T10:15:16;95756.22;;;9.90;81.93
4590;BME280;2307;48.448;9.216;2023-02-21T10:17:46;95752.69;;;9.96;80.90
4590;BME280;2307;48.448;9.216;2023-02-21T10:20:19;95759.88;;;10.07;81.04
4590;BME280;2307;48.448;9.216;2023-02-21T10:22:47;95757.53;;;10.17;80.38
4590;BME280;2307;48.448;9.216;2023-02-21T10:25:18;95751.38;;;10.23;79.79
4590;BME280;2307;48.448;9.216;2023-02-21T10:27:45;95752.94;;;10.42;75.28
4590;BME280;2307;48.448;9.216;2023-02-21T10:30:16;95753.31;;;10.57;74.95
4590;BME280;2307;48.448;9.216;2023-02-21T10:32:45;95750.47;;;10.71;74.96
4590;BME280;2307;48.448;9.216;2023-02-21T10:35:12;95752.59;;;10.92;67.52
4590;BME280;2307;48.448;9.216;2023-02-21T10:37:38;95753.88;;;11.24;63.81
4590;BME280;2307;48.448;9.216;2023-02-21T10:40:25;95752.38;;;11.51;61.97
4590;BME280;2307;48.448;9.216;2023-02-21T10:42:53;95752.59;;;11.85;59.79
4590;BME280;2307;48.448;9.216;2023-02-21T10:45:23;95753.50;;;12.30;57.92
4590;BME280;2307;48.448;9.216;2023-02-21T10:47:55;95745.63;;;12.63;55.48
4590;BME280;2307;48.448;9.216;2023-02-21T10:50:41;95751.59;;;12.87;53.88
4590;BME280;2307;48.448;9.216;2023-02-21T10:56:20;95743.84;;;13.91;52.85
4590;BME280;2307;48.448;9.216;2023-02-21T10:58:47;95747.34;;;14.61;50.96
4590;BME280;2307;48.448;9.216;2023-02-21T11:01:16;95740.44;;;15.24;49.58
4590;BME280;2307;48.448;9.216;2023-02-21T11:03:43;95740.72;;;15.64;47.83
4590;BME280;2307;48.448;9.216;2023-02-21T11:06:10;95737.78;;;16.13;46.47
4590;BME280;2307;48.448;9.216;2023-02-21T11:08:46;95727.00;;;16.60;44.24
4590;BME280;2307;48.448;9.216;2023-02-21T11:11:12;95727.31;;;17.04;42.77
4590;BME280;2307;48.448;9.216;2023-02-21T11:13:39;95726.25;;;17.55;41.80
4590;BME280;2307;48.448;9.216;2023-02-21T11:16:09;95721.91;;;17.74;40.43
4590;BME280;2307;48.448;9.216;2023-02-21T11:18:37;95723.94;;;18.13;39.76
4590;BME280;2307;48.448;9.216;2023-02-21T11:21:09;95717.09;;;18.45;39.29
4590;BME280;2307;48.448;9.216;2023-02-21T11:23:36;95720.44;;;18.71;38.43
4590;BME280;2307;48.448;9.216;2023-02-21T11:26:05;95718.28;;;18.73;38.09
4590;BME280;2307;48.448;9.216;2023-02-21T11:28:35;95713.88;;;18.92;37.23
4590;BME280;2307;48.448;9.216;2023-02-21T11:31:04;95708.25;;;18.50;35.84
4590;BME280;2307;48.448;9.216;2023-02-21T11:33:34;95712.31;;;18.86;38.38
4590;BME280;2307;48.448;9.216;2023-02-21T11:38:59;95699.28;;;19.42;36.87
4590;BME280;2307;48.448;9.216;2023-02-21T11:41:27;95698.06;;;19.58;34.80
4590;BME280;2307;48.448;9.216;2023-02-21T11:43:54;95693.41;;;19.69;33.73
4590;BME280;2307;48.448;9.216;2023-02-21T11:46:25;95686.38;;;19.73;34.11
4590;BME280;2307;48.448;9.216;2023-02-21T11:48:58;95680.78;;;19.46;34.50
4590;BME280;2307;48.448;9.216;2023-02-21T11:51:30;95684.72;;;19.20;33.56
4590;BME280;2307;48.448;9.216;2023-02-21T11:53:58;95669.56;;;19.39;33.90
4590;BME280;2307;48.448;9.216;2023-02-21T11:56:33;95666.94;;;19.63;33.66
4590;BME280;2307;48.448;9.216;2023-02-21T11:59:04;95666.47;;;19.55;33.80
4590;BME280;2307;48.448;9.216;2023-02-21T12:01:37;95657.72;;;19.45;33.87
4590;BME280;2307;48.448;9.216;2023-02-21T12:04:17;95659.19;;;19.85;33.93
4590;BME280;2307;48.448;9.216;2023-02-21T12:06:49;95646.06;;;19.83;33.72
4590;BME280;2307;48.448;9.216;2023-02-21T12:09:22;95641.25;;;19.80;33.59
4590;BME280;2307;48.448;9.216;2023-02-21T12:11:55;95641.94;;;19.67;33.70
4590;BME280;2307;48.448;9.216;2023-02-21T12:14:36;95642.03;;;19.62;33.68
4590;BME280;2307;48.448;9.216;2023-02-21T12:17:09;95634.38;;;20.17;32.71
4590;BME280;2307;48.448;9.216;2023-02-21T12:19:46;95625.44;;;20.02;32.88
4590;BME280;2307;48.448;9.216;2023-02-21T12:22:21;95622.63;;;20.68;31.84
4590;BME280;2307;48.448;9.216;2023-02-21T12:24:57;95621.00;;;20.35;32.00
4590;BME280;2307;48.448;9.216;2023-02-21T12:27:28;95615.06;;;20.14;31.82
4590;BME280;2307;48.448;9.216;2023-02-21T12:30:08;95614.16;;;20.43;32.59
4590;BME280;2307;48.448;9.216;2023-02-21T12:32:44;95605.34;;;21.07;31.89
4590;BME280;2307;48.448;9.216;2023-02-21T12:35:21;95602.97;;;20.73;30.93
4590;BME280;2307;48.448;9.216;2023-02-21T12:37:56;95602.06;;;20.64;31.17
4590;BME280;2307;48.448;9.216;2023-02-21T12:40:35;95592.84;;;20.84;30.79
4590;BME280;2307;48.448;9.216;2023-02-21T12:43:18;95587.84;;;20.77;30.17
4590;BME280;2307;48.448;9.216;2023-02-21T12:45:49;95592.19;;;20.41;30.97
4590;BME280;2307;48.448;9.216;2023-02-21T12:48:21;95582.56;;;20.72;31.61
4590;BME280;2307;48.448;9.216;2023-02-21T12:50:53;95575.59;;;20.57;30.59
4590;BME280;2307;48.448;9.216;2023-02-21T12:53:23;95568.91;;;20.36;30.44
4590;BME280;2307;48.448;9.216;2023-02-21T12:55:53;95572.13;;;20.38;31.57
4590;BME280;2307;48.448;9.216;2023-02-21T12:58:22;95560.44;;;20.48;32.19
4590;BME280;2307;48.448;9.216;2023-02-21T13:00:50;95560.22;;;20.77;31.79
4590;BME280;2307;48.448;9.216;2023-02-21T13:03:30;95549.34;;;20.68;30.72
4590;BME280;2307;48.448;9.216;2023-02-21T13:06:01;95553.00;;;20.91;31.79
4590;BME280;2307;48.448;9.216;2023-02-21T13:08:28;95546.22;;;20.93;30.32
4590;BME280;2307;48.448;9.216;2023-02-21T13:11:05;95542.13;;;21.55;30.70
4590;BME280;2307;48.448;9.216;2023-02-21T13:13:34;95532.97;;;21.43;30.44
4590;BME280;2307;48.448;9.216;2023-02-21T13:16:01;95526.47;;;21.44;29.81
4590;BME280;2307;48.448;9.216;2023-02-21T13:18:29;95525.38;;;21.31;30.65
4590;BME280;2307;48.448;9.216;2023-02-21T13:20:59;95518.41;;;21.57;31.10
4590;BME280;2307;48.448;9.216;2023-02-21T13:23:40;95516.28;;;21.00;31.23
4590;BME280;2307;48.448;9.216;2023-02-21T13:26:31;95508.09;;;21.24;31.14
4590;BME280;2307;48.448;9.216;2023-02-21T13:29:01;95503.41;;;21.15;31.24
4590;BME280;2307;48.448;9.216;2023-02-21T13:31:34;95503.38;;;20.88;31.75
4590;BME280;2307;48.448;9.216;2023-02-21T13:34:04;95500.78;;;21.65;30.94
4590;BME280;2307;48.448;9.216;2023-02-21T13:36:32;95497.00;;;22.15;30.25
4590;BME280;2307;48.448;9.216;2023-02-21T13:39:09;95489.91;;;22.42;29.81
4590;BME280;2307;48.448;9.216;2023-02-21T13:41:38;95486.53;;;22.36;29.78
4590;BME280;2307;48.448;9.216;2023-02-21T13:44:06;95485.06;;;21.72;30.98
4590;BME280;2307;48.448;9.216;2023-02-21T13:52:22;95471.69;;;22.16;31.00
4590;BME280;2307;48.448;9.216;2023-02-21T13:57:40;95457.47;;;21.66;30.68
4590;BME280;2307;48.448;9.216;2023-02-21T14:02:55;95458.56;;;22.01;29.69
4590;BME280;2307;48.448;9.216;2023-02-21T14:05:21;95449.22;;;21.99;30.17
4590;BME280;2307;48.448;9.216;2023-02-21T14:07:54;95457.63;;;21.84;30.64
4590;BME280;2307;48.448;9.216;2023-02-21T14:10:23;95453.16;;;22.15;29.84
4590;BME280;2307;48.448;9.216;2023-02-21T14:12:54;95444.88;;;22.11;29.25